createdAt,value
2023-07-19T00:01:15.779Z,24.89
2023-07-19T00:03:20.943Z,24.89
2023-07-19T00:05:25.787Z,24.88
2023-07-19T00:07:30.708Z,24.89
2023-07-19T00:09:35.591Z,24.89
2023-07-19T00:11:40.487Z,24.90
2023-07-19T00:13:45.343Z,24.92
2023-07-19T00:15:50.390Z,24.91
2023-07-19T00:17:55.329Z,24.93
2023-07-19T00:20:00.195Z,24.92
2023-07-19T00:22:08.622Z,24.91
2023-07-19T00:24:13.734Z,24.90
2023-07-19T00:26:18.668Z,24.90
2023-07-19T00:28:24.032Z,24.89
2023-07-19T00:30:31.491Z,24.90
2023-07-19T00:32:36.490Z,24.91
2023-07-19T00:34:42.270Z,24.93
2023-07-19T00:36:47.220Z,24.93
2023-07-19T00:38:52.024Z,24.92
2023-07-19T00:40:57.027Z,24.88
2023-07-19T00:43:08.139Z,24.87
2023-07-19T00:45:14.898Z,24.84
2023-07-19T00:47:20.083Z,24.83
2023-07-19T00:49:28.198Z,24.82
2023-07-19T00:51:33.470Z,24.79
2023-07-19T00:53:39.234Z,24.78
2023-07-19T00:55:46.167Z,24.75
2023-07-19T00:57:51.226Z,24.74
2023-07-19T00:59:56.280Z,24.74
2023-07-19T01:02:01.149Z,24.70
2023-07-19T01:05:59.213Z,24.72
2023-07-19T01:08:04.305Z,24.72
2023-07-19T01:10:10.326Z,24.73
2023-07-19T01:12:15.106Z,24.74
2023-07-19T01:14:20.038Z,24.76
2023-07-19T01:16:24.862Z,24.80
2023-07-19T01:18:29.681Z,24.80
2023-07-19T01:20:34.878Z,24.79
2023-07-19T01:22:39.710Z,24.79
2023-07-19T01:24:47.417Z,24.77
2023-07-19T01:26:52.259Z,24.75
2023-07-19T01:28:59.928Z,24.75
2023-07-19T01:31:06.887Z,24.75
2023-07-19T01:33:23.908Z,24.75
2023-07-19T01:35:36.465Z,24.76
2023-07-19T01:37:41.332Z,24.76
2023-07-19T01:39:46.476Z,24.79
2023-07-19T01:41:51.173Z,24.80
2023-07-19T01:43:55.904Z,24.81
2023-07-19T01:46:01.559Z,24.83
2023-07-19T01:48:06.749Z,24.83
2023-07-19T01:50:12.346Z,24.84
2023-07-19T01:52:20.026Z,24.85
2023-07-19T01:54:24.900Z,24.86
2023-07-19T01:56:29.657Z,24.86
2023-07-19T01:58:34.207Z,24.87
2023-07-19T02:00:39.372Z,24.87
2023-07-19T02:02:44.375Z,24.87
2023-07-19T02:04:49.260Z,24.87
2023-07-19T02:06:54.218Z,24.87
2023-07-19T02:08:58.898Z,24.87
2023-07-19T02:11:05.503Z,24.88
2023-07-19T02:13:10.293Z,24.89
2023-07-19T02:15:15.150Z,24.89
2023-07-19T02:17:19.935Z,24.91
2023-07-19T02:19:24.607Z,24.92
2023-07-19T02:21:30.681Z,24.93
2023-07-19T02:23:35.893Z,24.93
2023-07-19T02:25:42.415Z,24.93
2023-07-19T02:27:47.094Z,24.92
2023-07-19T02:29:51.856Z,24.90
2023-07-19T02:31:56.931Z,24.87
2023-07-19T02:34:01.661Z,24.88
2023-07-19T02:36:06.845Z,24.86
2023-07-19T02:38:11.737Z,24.84
2023-07-19T02:40:16.405Z,24.83
2023-07-19T02:42:21.306Z,24.83
2023-07-19T02:44:27.596Z,24.83
2023-07-19T02:46:32.383Z,24.83
2023-07-19T02:48:37.161Z,24.84
2023-07-19T02:50:46.701Z,24.82
2023-07-19T02:52:51.337Z,24.81
2023-07-19T02:54:55.999Z,24.79
2023-07-19T02:57:00.767Z,24.76
2023-07-19T02:59:05.565Z,24.76
2023-07-19T03:01:10.391Z,24.76
2023-07-19T03:03:15.293Z,24.73
2023-07-19T03:05:20.328Z,24.74
2023-07-19T03:07:25.091Z,24.71
2023-07-19T03:09:29.807Z,24.70
2023-07-19T03:11:34.533Z,24.68
2023-07-19T03:13:39.676Z,24.67
2023-07-19T03:15:47.958Z,24.65
2023-07-19T03:17:52.890Z,24.65
2023-07-19T03:19:57.672Z,24.61
2023-07-19T03:22:02.346Z,24.57
2023-07-19T03:24:07.787Z,24.54
2023-07-19T03:26:12.634Z,24.51
2023-07-19T03:28:17.550Z,24.51
2023-07-19T03:30:22.795Z,24.52
2023-07-19T03:32:27.776Z,24.55
2023-07-19T03:34:32.612Z,24.56
2023-07-19T03:36:37.417Z,24.57
2023-07-19T03:38:42.160Z,24.58
2023-07-19T03:40:47.005Z,24.57
2023-07-19T03:42:52.372Z,24.56
2023-07-19T03:44:57.282Z,24.57
2023-07-19T03:47:02.064Z,24.57
2023-07-19T03:49:06.841Z,24.58
2023-07-19T03:51:11.543Z,24.59
2023-07-19T03:53:16.299Z,24.58
2023-07-19T03:55:21.261Z,24.56
2023-07-19T03:57:26.169Z,24.54
2023-07-19T03:59:31.974Z,24.53
2023-07-19T04:01:36.805Z,24.51
2023-07-19T04:03:41.581Z,24.48
2023-07-19T04:05:46.352Z,24.45
2023-07-19T04:07:51.165Z,24.46
2023-07-19T04:09:56.343Z,24.45
2023-07-19T04:12:01.365Z,24.45
2023-07-19T04:14:06.157Z,24.46
2023-07-19T04:16:11.237Z,24.45
2023-07-19T04:18:16.086Z,24.47
2023-07-19T04:20:21.185Z,24.48
2023-07-19T04:22:26.006Z,24.48
2023-07-19T04:24:30.842Z,24.50
2023-07-19T04:26:35.733Z,24.51
2023-07-19T04:28:40.462Z,24.49
2023-07-19T04:30:48.409Z,24.45
2023-07-19T04:32:54.836Z,24.43
2023-07-19T04:35:00.205Z,24.40
2023-07-19T04:37:05.325Z,24.40
2023-07-19T04:39:09.977Z,24.41
2023-07-19T04:41:15.408Z,24.43
2023-07-19T04:43:20.099Z,24.45
2023-07-19T04:45:29.283Z,24.50
2023-07-19T04:47:34.732Z,24.56
2023-07-19T04:49:39.564Z,24.58
2023-07-19T04:51:44.494Z,24.60
2023-07-19T04:53:49.383Z,24.60
2023-07-19T04:55:55.403Z,24.64
2023-07-19T04:58:02.108Z,24.66
2023-07-19T05:00:09.891Z,24.67
2023-07-19T05:02:14.633Z,24.69
2023-07-19T05:04:19.416Z,24.71
2023-07-19T05:06:24.129Z,24.73
2023-07-19T05:08:29.033Z,24.76
2023-07-19T05:10:35.542Z,24.79
2023-07-19T05:12:40.268Z,24.78
2023-07-19T05:14:45.052Z,24.74
2023-07-19T05:16:49.766Z,24.73
2023-07-19T05:18:54.644Z,24.72
2023-07-19T05:20:59.652Z,24.71
2023-07-19T05:23:05.122Z,24.74
2023-07-19T05:25:10.377Z,24.77
2023-07-19T05:27:15.127Z,24.82
2023-07-19T05:29:19.915Z,24.88
2023-07-19T05:31:24.781Z,24.92
2023-07-19T05:33:29.740Z,24.95
2023-07-19T05:35:34.606Z,24.98
2023-07-19T05:37:39.281Z,25.00
2023-07-19T05:39:44.054Z,25.03
2023-07-19T05:41:50.681Z,25.02
2023-07-19T05:44:10.298Z,25.04
2023-07-19T05:46:16.167Z,25.05
2023-07-19T05:48:20.843Z,25.07
2023-07-19T05:50:25.723Z,25.11
2023-07-19T05:52:30.396Z,25.14
2023-07-19T05:54:35.127Z,25.18
2023-07-19T05:56:39.875Z,25.24
2023-07-19T05:58:44.557Z,25.30
2023-07-19T06:00:49.791Z,25.36
2023-07-19T06:02:56.307Z,25.41
2023-07-19T06:05:01.632Z,25.47
2023-07-19T06:07:06.638Z,25.53
2023-07-19T06:09:11.447Z,25.59
2023-07-19T06:11:16.399Z,25.67
2023-07-19T06:13:21.518Z,25.76
2023-07-19T06:15:26.387Z,25.88
2023-07-19T06:17:31.128Z,25.95
2023-07-19T06:19:36.066Z,26.05
2023-07-19T06:21:40.907Z,26.14
2023-07-19T06:23:45.740Z,26.24
2023-07-19T06:25:50.948Z,26.32
2023-07-19T06:27:55.830Z,26.37
2023-07-19T06:30:00.695Z,26.40
2023-07-19T06:32:06.593Z,26.40
2023-07-19T06:34:11.324Z,26.45
2023-07-19T06:36:16.126Z,26.49
2023-07-19T06:38:20.858Z,26.53
2023-07-19T06:40:25.954Z,26.61
2023-07-19T06:42:31.483Z,26.69
2023-07-19T06:44:36.324Z,26.77
2023-07-19T06:46:41.138Z,26.84
2023-07-19T06:48:45.861Z,26.90
2023-07-19T06:50:50.946Z,26.94
2023-07-19T06:52:55.980Z,26.99
2023-07-19T06:55:00.791Z,27.06
2023-07-19T06:57:09.498Z,27.18
2023-07-19T06:59:14.356Z,27.30
2023-07-19T07:01:19.457Z,27.39
2023-07-19T07:03:24.758Z,27.44
2023-07-19T07:05:29.805Z,27.49
2023-07-19T07:07:34.475Z,27.55
2023-07-19T07:09:39.414Z,27.64
2023-07-19T07:11:44.476Z,27.71
2023-07-19T07:13:49.332Z,27.79
2023-07-19T07:15:54.660Z,27.84
2023-07-19T07:17:59.507Z,27.89
2023-07-19T07:20:04.999Z,27.90
2023-07-19T07:22:09.956Z,27.97
2023-07-19T07:24:15.105Z,28.07
2023-07-19T07:26:20.214Z,28.17
2023-07-19T07:28:25.112Z,28.24
2023-07-19T07:30:30.024Z,28.30
2023-07-19T07:32:36.486Z,28.36
2023-07-19T07:34:41.480Z,28.36
2023-07-19T07:36:46.436Z,28.38
2023-07-19T07:38:51.392Z,28.41
2023-07-19T07:41:01.277Z,28.45
2023-07-19T07:43:06.304Z,28.51
2023-07-19T07:45:12.445Z,28.57
2023-07-19T07:47:17.392Z,28.63
2023-07-19T07:49:22.242Z,28.69
2023-07-19T07:51:27.489Z,28.74
2023-07-19T07:53:32.448Z,28.76
2023-07-19T07:55:37.537Z,28.81
2023-07-19T07:57:42.317Z,28.86
2023-07-19T07:59:47.499Z,28.93
2023-07-19T08:01:52.289Z,28.95
2023-07-19T08:03:57.204Z,28.94
2023-07-19T08:06:03.939Z,28.92
2023-07-19T08:08:09.187Z,28.87
2023-07-19T08:10:14.349Z,28.82
2023-07-19T08:12:19.495Z,28.77
2023-07-19T08:14:24.697Z,28.73
2023-07-19T08:16:30.646Z,28.70
2023-07-19T08:18:35.729Z,28.69
2023-07-19T08:20:41.057Z,28.69
2023-07-19T08:22:46.415Z,28.64
2023-07-19T08:24:51.519Z,28.65
2023-07-19T08:26:56.267Z,28.71
2023-07-19T08:29:01.325Z,28.77
2023-07-19T08:31:06.233Z,28.84
2023-07-19T08:33:11.288Z,28.97
2023-07-19T08:35:17.331Z,29.08
2023-07-19T08:37:22.361Z,29.16
2023-07-19T08:39:27.305Z,29.23
2023-07-19T08:41:35.488Z,29.28
2023-07-19T08:43:41.249Z,29.38
2023-07-19T08:45:46.406Z,29.49
2023-07-19T08:47:51.916Z,29.56
2023-07-19T08:49:57.526Z,29.55
2023-07-19T08:52:04.400Z,29.54
2023-07-19T08:54:09.596Z,29.55
2023-07-19T08:56:14.961Z,29.56
2023-07-19T08:58:20.572Z,29.57
2023-07-19T09:00:25.373Z,29.60
2023-07-19T09:02:30.193Z,29.66
2023-07-19T09:04:36.687Z,29.75
2023-07-19T09:06:42.440Z,29.78
2023-07-19T09:08:47.580Z,29.78
2023-07-19T09:10:53.064Z,29.80
2023-07-19T09:12:58.143Z,29.86
2023-07-19T09:15:03.280Z,29.85
2023-07-19T09:17:08.654Z,29.81
2023-07-19T09:19:13.441Z,29.80
2023-07-19T09:21:21.003Z,29.85
2023-07-19T09:23:26.339Z,29.90
2023-07-19T09:25:31.668Z,29.90
2023-07-19T09:27:36.818Z,29.90
2023-07-19T09:29:43.150Z,29.88
2023-07-19T09:31:55.946Z,29.92
2023-07-19T09:34:00.921Z,29.96
2023-07-19T09:36:05.832Z,29.98
2023-07-19T09:38:10.773Z,29.97
2023-07-19T09:40:15.999Z,29.97
2023-07-19T09:42:21.151Z,29.94
2023-07-19T09:44:26.408Z,29.89
2023-07-19T09:46:34.795Z,29.88
2023-07-19T09:48:39.866Z,29.88
2023-07-19T09:50:47.882Z,29.88
2023-07-19T09:52:57.033Z,29.89
2023-07-19T09:55:03.345Z,29.91
2023-07-19T09:57:08.679Z,29.90
2023-07-19T09:59:14.923Z,29.83
2023-07-19T10:01:20.346Z,29.77
2023-07-19T10:03:27.366Z,29.74
2023-07-19T10:05:32.806Z,29.75
2023-07-19T10:07:50.620Z,29.71
2023-07-19T10:10:04.531Z,29.65
2023-07-19T10:12:25.432Z,29.65
2023-07-19T10:14:34.639Z,29.71
2023-07-19T10:16:48.455Z,29.75
2023-07-19T10:19:10.265Z,29.81
2023-07-19T10:21:19.867Z,29.94
2023-07-19T10:23:24.621Z,30.09
2023-07-19T10:25:31.824Z,30.18
2023-07-19T10:27:39.410Z,30.27
2023-07-19T10:29:46.481Z,30.32
2023-07-19T10:31:51.264Z,30.32
2023-07-19T10:33:58.244Z,30.32
2023-07-19T10:36:08.559Z,30.37
2023-07-19T10:38:17.383Z,30.43
2023-07-19T10:40:22.248Z,30.49
2023-07-19T10:42:27.344Z,30.55
2023-07-19T10:44:32.039Z,30.61
2023-07-19T10:46:36.986Z,30.61
2023-07-19T10:48:42.985Z,30.51
2023-07-19T10:50:48.769Z,30.40
2023-07-19T10:52:56.885Z,30.30
2023-07-19T10:55:15.480Z,30.26
2023-07-19T10:57:27.419Z,30.26
2023-07-19T10:59:32.459Z,30.27
2023-07-19T11:01:37.738Z,30.32
2023-07-19T11:03:47.811Z,30.40
2023-07-19T11:05:56.390Z,30.44
2023-07-19T11:08:01.324Z,30.43
2023-07-19T11:10:07.373Z,30.46
2023-07-19T11:12:12.305Z,30.49
2023-07-19T11:14:30.930Z,30.46
2023-07-19T11:16:36.289Z,30.49
2023-07-19T11:18:42.092Z,30.54
2023-07-19T11:20:49.126Z,30.61
2023-07-19T11:23:03.058Z,30.70
2023-07-19T11:25:13.105Z,30.85
2023-07-19T11:27:18.393Z,31.01
2023-07-19T11:29:29.649Z,31.18
2023-07-19T11:31:36.428Z,31.27
2023-07-19T11:33:41.611Z,31.26
2023-07-19T11:35:46.348Z,31.21
2023-07-19T11:37:54.497Z,31.29
2023-07-19T11:39:59.831Z,31.36
2023-07-19T11:42:05.194Z,31.39
2023-07-19T11:44:15.634Z,31.39
2023-07-19T11:46:20.600Z,31.45
2023-07-19T11:48:27.770Z,31.48
2023-07-19T11:50:33.750Z,31.53
2023-07-19T11:52:50.231Z,31.67
2023-07-19T11:54:54.968Z,31.82
2023-07-19T11:56:59.844Z,31.92
2023-07-19T11:59:04.739Z,32.00
2023-07-19T12:01:09.659Z,32.09
2023-07-19T12:03:14.867Z,32.16
2023-07-19T12:05:23.741Z,32.17
2023-07-19T12:07:28.607Z,32.17
2023-07-19T12:09:33.520Z,32.12
2023-07-19T12:11:38.655Z,32.07
2023-07-19T12:13:43.475Z,32.04
2023-07-19T12:15:48.164Z,32.03
2023-07-19T12:17:53.204Z,32.04
2023-07-19T12:19:58.196Z,32.03
2023-07-19T12:22:14.289Z,32.09
2023-07-19T12:24:19.642Z,32.21
2023-07-19T12:28:32.174Z,32.33
2023-07-19T12:30:36.998Z,32.29
2023-07-19T12:32:42.068Z,32.33
2023-07-19T12:34:47.548Z,32.33
2023-07-19T12:36:52.269Z,32.29
2023-07-19T12:38:57.689Z,32.33
2023-07-19T12:41:03.897Z,32.37
2023-07-19T12:43:08.740Z,32.37
2023-07-19T12:45:13.545Z,32.41
2023-07-19T12:47:18.413Z,32.40
2023-07-19T12:49:23.272Z,32.42
2023-07-19T12:51:28.284Z,32.46
2023-07-19T12:53:33.654Z,32.49
2023-07-19T12:55:39.524Z,32.56
2023-07-19T12:57:44.345Z,32.63
2023-07-19T12:59:49.229Z,32.64
2023-07-19T13:01:55.705Z,32.57
2023-07-19T13:04:00.775Z,32.54
2023-07-19T13:06:05.848Z,32.63
2023-07-19T13:08:10.505Z,32.73
2023-07-19T13:10:15.652Z,32.79
2023-07-19T13:12:20.570Z,32.87
2023-07-19T13:14:25.475Z,32.88
2023-07-19T13:16:30.388Z,32.84
2023-07-19T13:18:35.298Z,32.82
2023-07-19T13:20:40.165Z,32.84
2023-07-19T13:22:45.093Z,32.78
2023-07-19T13:24:50.033Z,32.73
2023-07-19T13:26:55.051Z,32.72
2023-07-19T13:29:01.213Z,32.62
2023-07-19T13:31:06.592Z,32.56
2023-07-19T13:33:11.546Z,32.58
2023-07-19T13:35:54.409Z,32.55
2023-07-19T13:39:52.583Z,32.39
2023-07-19T13:41:57.304Z,32.43
2023-07-19T13:44:02.233Z,32.48
2023-07-19T13:46:07.167Z,32.55
2023-07-19T13:48:12.214Z,32.62
2023-07-19T13:50:17.216Z,32.72
2023-07-19T13:52:22.073Z,32.81
2023-07-19T13:54:26.858Z,32.88
2023-07-19T13:56:31.815Z,32.93
2023-07-19T13:58:37.024Z,32.96
2023-07-19T14:00:42.083Z,32.88
2023-07-19T14:02:48.203Z,32.77
2023-07-19T14:04:54.541Z,32.67
2023-07-19T14:06:59.463Z,32.61
2023-07-19T14:09:04.253Z,32.58
2023-07-19T14:11:09.158Z,32.56
2023-07-19T14:13:30.559Z,32.63
2023-07-19T14:15:37.198Z,32.69
2023-07-19T14:17:45.115Z,32.75
2023-07-19T14:19:49.851Z,32.75
2023-07-19T14:21:54.681Z,32.70
2023-07-19T14:23:59.537Z,32.66
2023-07-19T14:26:04.348Z,32.63
2023-07-19T14:28:09.259Z,32.63
2023-07-19T14:30:14.622Z,32.67
2023-07-19T14:32:19.435Z,32.67
2023-07-19T14:34:26.761Z,32.69
2023-07-19T14:36:32.079Z,32.71
2023-07-19T14:38:36.795Z,32.70
2023-07-19T14:40:41.662Z,32.70
2023-07-19T14:42:46.592Z,32.66
2023-07-19T14:44:51.297Z,32.63
2023-07-19T14:46:56.174Z,32.65
2023-07-19T14:49:00.965Z,32.66
2023-07-19T14:51:06.821Z,32.66
2023-07-19T14:53:11.844Z,32.65
2023-07-19T14:55:16.766Z,32.63
2023-07-19T14:57:21.551Z,32.57
2023-07-19T14:59:26.304Z,32.53
2023-07-19T15:01:33.974Z,32.58
2023-07-19T15:03:38.943Z,32.59
2023-07-19T15:05:45.559Z,32.56
2023-07-19T15:07:55.604Z,32.52
2023-07-19T15:10:00.867Z,32.47
2023-07-19T15:12:06.845Z,32.42
2023-07-19T15:14:11.696Z,32.37
2023-07-19T15:16:16.522Z,32.34
2023-07-19T15:18:21.471Z,32.32
2023-07-19T15:20:26.518Z,32.25
2023-07-19T15:22:33.238Z,32.23
2023-07-19T15:24:38.068Z,32.20
2023-07-19T15:26:43.147Z,32.20
2023-07-19T15:28:48.119Z,32.16
2023-07-19T15:30:54.572Z,32.16
2023-07-19T15:32:59.315Z,32.16
2023-07-19T15:35:04.395Z,32.19
2023-07-19T15:37:09.374Z,32.26
2023-07-19T15:39:14.101Z,32.31
2023-07-19T15:41:18.958Z,32.30
2023-07-19T15:43:23.872Z,32.30
2023-07-19T15:45:28.671Z,32.31
2023-07-19T15:47:33.447Z,32.35
2023-07-19T15:49:38.277Z,32.32
2023-07-19T15:51:43.117Z,32.32
2023-07-19T15:53:48.163Z,32.31
2023-07-19T15:55:52.912Z,32.27
2023-07-19T15:57:57.622Z,32.23
2023-07-19T16:00:02.454Z,32.25
2023-07-19T16:02:10.390Z,32.23
2023-07-19T16:04:15.203Z,32.23
2023-07-19T16:06:20.087Z,32.22
2023-07-19T16:08:24.859Z,32.23
2023-07-19T16:10:29.841Z,32.21
2023-07-19T16:12:35.739Z,32.18
2023-07-19T16:14:40.522Z,32.17
2023-07-19T16:16:45.287Z,32.13
2023-07-19T16:18:50.385Z,32.09
2023-07-19T16:20:56.069Z,32.07
2023-07-19T16:23:00.942Z,32.05
2023-07-19T16:25:07.405Z,32.01
2023-07-19T16:27:12.355Z,31.97
2023-07-19T16:29:17.171Z,31.94
2023-07-19T16:31:22.184Z,31.96
2023-07-19T16:33:27.115Z,31.99
2023-07-19T16:35:32.491Z,31.97
2023-07-19T16:37:37.241Z,31.93
2023-07-19T16:39:41.922Z,31.89
2023-07-19T16:41:46.640Z,31.88
2023-07-19T16:43:51.373Z,31.87
2023-07-19T16:45:59.105Z,31.86
2023-07-19T16:48:04.036Z,31.84
2023-07-19T16:50:09.659Z,31.83
2023-07-19T16:52:15.275Z,31.83
2023-07-19T16:54:20.212Z,31.77
2023-07-19T16:56:24.912Z,31.75
2023-07-19T16:58:29.684Z,31.74
2023-07-19T17:00:34.615Z,31.72
2023-07-19T17:02:39.411Z,31.68
2023-07-19T17:04:44.082Z,31.64
2023-07-19T17:06:51.653Z,31.61
2023-07-19T17:08:56.440Z,31.57
2023-07-19T17:11:01.183Z,31.51
2023-07-19T17:13:07.177Z,31.45
2023-07-19T17:15:12.694Z,31.44
2023-07-19T17:17:17.682Z,31.43
2023-07-19T17:19:22.417Z,31.38
2023-07-19T17:21:27.186Z,31.29
2023-07-19T17:23:32.147Z,31.24
2023-07-19T17:25:37.193Z,31.19
2023-07-19T17:27:42.668Z,31.16
2023-07-19T17:29:48.221Z,31.15
2023-07-19T17:31:54.331Z,31.13
2023-07-19T17:34:01.251Z,31.13
2023-07-19T17:36:07.050Z,31.14
2023-07-19T17:38:12.722Z,31.17
2023-07-19T17:40:18.332Z,31.13
2023-07-19T17:42:23.207Z,31.07
2023-07-19T17:44:29.215Z,30.96
2023-07-19T17:46:34.311Z,30.73
2023-07-19T17:48:40.469Z,30.41
2023-07-19T17:50:45.526Z,29.97
2023-07-19T17:52:51.441Z,29.53
2023-07-19T17:54:57.461Z,29.10
2023-07-19T17:57:03.050Z,28.70
2023-07-19T17:59:09.608Z,28.34
2023-07-19T18:01:15.855Z,28.02
2023-07-19T18:03:21.533Z,27.81
2023-07-19T18:05:26.453Z,27.65
2023-07-19T18:07:33.148Z,27.50
2023-07-19T18:09:40.273Z,27.39
2023-07-19T18:11:46.386Z,27.28
2023-07-19T18:13:52.692Z,27.17
2023-07-19T18:15:59.277Z,27.07
2023-07-19T18:18:05.917Z,26.98
2023-07-19T18:20:12.785Z,26.93
2023-07-19T18:22:18.924Z,26.89
2023-07-19T18:24:25.300Z,26.85
2023-07-19T18:26:31.238Z,26.82
2023-07-19T18:28:35.979Z,26.77
2023-07-19T18:30:42.213Z,26.72
2023-07-19T18:32:47.067Z,26.67
2023-07-19T18:34:51.818Z,26.63
2023-07-19T18:39:04.273Z,26.57
2023-07-19T18:41:10.547Z,26.54
2023-07-19T18:43:15.492Z,26.51
2023-07-19T18:45:22.033Z,26.49
2023-07-19T18:47:27.823Z,26.47
2023-07-19T18:49:33.436Z,26.44
2023-07-19T18:51:38.446Z,26.42
2023-07-19T18:53:44.918Z,26.42
2023-07-19T18:55:50.791Z,26.41
2023-07-19T18:57:56.753Z,26.39
2023-07-19T19:00:03.627Z,26.37
2023-07-19T19:02:10.143Z,26.35
2023-07-19T19:04:16.550Z,26.30
2023-07-19T19:06:24.697Z,26.26
2023-07-19T19:08:31.065Z,26.23
2023-07-19T19:10:36.263Z,26.19
2023-07-19T19:12:43.321Z,26.17
2023-07-19T19:14:48.956Z,26.14
2023-07-19T19:16:53.870Z,26.14
2023-07-19T19:18:59.638Z,26.10
2023-07-19T19:21:05.893Z,26.05
2023-07-19T19:23:12.581Z,25.99
2023-07-19T19:25:17.924Z,25.94
2023-07-19T19:27:25.869Z,25.89
2023-07-19T19:29:35.270Z,25.85
2023-07-19T19:31:41.267Z,25.82
2023-07-19T19:33:48.376Z,25.81
2023-07-19T19:35:56.066Z,25.83
2023-07-19T19:38:01.207Z,25.81
2023-07-19T19:40:13.236Z,25.77
2023-07-19T19:42:19.096Z,25.74
2023-07-19T19:44:24.179Z,25.71
2023-07-19T19:46:30.021Z,25.69
2023-07-19T19:48:38.612Z,25.66
2023-07-19T19:50:46.484Z,25.66
2023-07-19T19:53:03.846Z,25.62
2023-07-19T19:55:17.344Z,25.56
2023-07-19T19:57:23.449Z,25.50
2023-07-19T19:59:29.502Z,25.48
2023-07-19T20:01:34.725Z,25.46
2023-07-19T20:03:39.708Z,25.44
2023-07-19T20:07:55.262Z,25.40
2023-07-19T20:10:17.724Z,25.36
2023-07-19T20:12:26.840Z,25.31
2023-07-19T20:14:31.824Z,25.30
2023-07-19T20:18:47.874Z,25.26
2023-07-19T20:20:54.321Z,25.23
2023-07-19T20:22:59.116Z,25.19
2023-07-19T20:25:08.926Z,25.19
2023-07-19T20:27:23.990Z,25.17
2023-07-19T20:31:55.985Z,25.09
2023-07-19T20:42:57.462Z,24.92
2023-07-19T20:45:03.411Z,24.87
2023-07-19T20:47:10.267Z,24.83
2023-07-19T20:49:15.855Z,24.81
2023-07-19T20:51:21.662Z,24.77
2023-07-19T20:53:28.561Z,24.73
2023-07-19T20:55:33.996Z,24.70
2023-07-19T20:57:38.863Z,24.70
2023-07-19T20:59:43.753Z,24.69
2023-07-19T21:01:48.638Z,24.67
2023-07-19T21:03:53.722Z,24.65
2023-07-19T21:05:58.670Z,24.64
2023-07-19T21:08:03.589Z,24.63
2023-07-19T21:10:09.681Z,24.60
2023-07-19T21:12:14.385Z,24.59
2023-07-19T21:14:19.092Z,24.57
2023-07-19T21:16:23.943Z,24.54
2023-07-19T21:18:28.689Z,24.53
2023-07-19T21:20:33.385Z,24.51
2023-07-19T21:22:38.228Z,24.47
2023-07-19T21:25:06.548Z,24.44
2023-07-19T21:27:08.352Z,24.41
2023-07-19T21:29:13.181Z,24.38
2023-07-19T21:31:18.024Z,24.36
2023-07-19T21:33:22.970Z,24.35
2023-07-19T21:35:27.878Z,24.34
2023-07-19T21:37:32.795Z,24.30
2023-07-19T21:39:37.471Z,24.29
2023-07-19T21:41:42.222Z,24.27
2023-07-19T21:43:50.308Z,24.26
2023-07-19T21:45:54.990Z,24.25
2023-07-19T21:47:59.842Z,24.25
2023-07-19T21:50:04.922Z,24.24
2023-07-19T21:52:11.219Z,24.23
2023-07-19T21:54:15.910Z,24.19
2023-07-19T21:56:21.982Z,24.18
2023-07-19T21:58:27.101Z,24.15
2023-07-19T22:00:41.774Z,24.13
2023-07-19T22:02:50.083Z,24.10
2023-07-19T22:04:54.976Z,24.07
2023-07-19T22:06:59.819Z,24.05
2023-07-19T22:09:04.525Z,24.03
2023-07-19T22:11:09.785Z,24.00
2023-07-19T22:13:14.485Z,23.97
2023-07-19T22:15:19.542Z,23.96
2023-07-19T22:17:24.387Z,23.95
2023-07-19T22:19:29.240Z,23.93
2023-07-19T22:21:34.565Z,23.93
2023-07-19T22:23:39.269Z,23.91
2023-07-19T22:25:44.290Z,23.90
2023-07-19T22:27:52.216Z,23.89
2023-07-19T22:29:57.250Z,23.88
2023-07-19T22:32:02.492Z,23.87
2023-07-19T22:34:07.393Z,23.85
2023-07-19T22:36:12.113Z,23.84
2023-07-19T22:38:16.859Z,23.83
2023-07-19T22:40:21.595Z,23.82
2023-07-19T22:42:26.396Z,23.83
2023-07-19T22:44:31.130Z,23.84
2023-07-19T22:46:36.019Z,23.86
2023-07-19T22:48:40.857Z,23.88
2023-07-19T22:50:45.480Z,23.91
2023-07-19T22:52:54.406Z,23.94
2023-07-19T22:54:59.098Z,23.97
2023-07-19T22:57:03.983Z,23.99
2023-07-19T22:59:11.486Z,24.02
2023-07-19T23:01:16.178Z,24.04
2023-07-19T23:03:21.138Z,24.07
2023-07-19T23:05:26.024Z,24.09
2023-07-19T23:07:30.822Z,24.10
2023-07-19T23:09:35.678Z,24.10
2023-07-19T23:11:40.426Z,24.10
2023-07-19T23:13:45.130Z,24.11
2023-07-19T23:15:49.950Z,24.09
2023-07-19T23:17:54.566Z,24.06
2023-07-19T23:19:59.429Z,24.02
2023-07-19T23:22:04.422Z,23.98
2023-07-19T23:24:09.447Z,23.94
2023-07-19T23:26:14.200Z,23.87
2023-07-19T23:28:19.989Z,23.81
2023-07-19T23:30:24.968Z,23.78
2023-07-19T23:32:29.669Z,23.75
2023-07-19T23:34:34.522Z,23.71
2023-07-19T23:36:39.275Z,23.69
2023-07-19T23:38:44.088Z,23.60
2023-07-19T23:40:49.008Z,23.54
2023-07-19T23:42:54.796Z,23.46
2023-07-19T23:45:00.095Z,23.38
2023-07-19T23:47:05.188Z,23.30
2023-07-19T23:49:10.142Z,23.24
2023-07-19T23:51:14.992Z,23.19
2023-07-19T23:53:19.598Z,23.15
2023-07-19T23:55:24.406Z,23.14
2023-07-19T23:57:29.065Z,23.10
2023-07-19T23:59:33.677Z,23.09
